sensor_id;sensor_type;location;lat;lon;timestamp;P1;durP1;ratioP1;P2;durP2;ratioP2
23370;SDS011;11858;51.056;3.712;2023-02-18T00:01:18;30.88;;;19.25;;
23370;SDS011;11858;51.056;3.712;2023-02-18T00:03:45;34.25;;;19.60;;
23370;SDS011;11858;51.056;3.712;2023-02-18T00:06:13;28.63;;;18.13;;
23370;SDS011;11858;51.056;3.712;2023-02-18T00:08:40;26.65;;;15.55;;
23370;SDS011;11858;51.056;3.712;2023-02-18T00:11:07;27.70;;;15.75;;
23370;SDS011;11858;51.056;3.712;2023-02-18T00:13:33;23.60;;;15.18;;
23370;SDS011;11858;51.056;3.712;2023-02-18T00:16:03;21.35;;;13.80;;
23370;SDS011;11858;51.056;3.712;2023-02-18T00:18:30;22.02;;;12.65;;
23370;SDS011;11858;51.056;3.712;2023-02-18T00:20:56;22.42;;;13.82;;
23370;SDS011;11858;51.056;3.712;2023-02-18T00:23:22;20.92;;;12.93;;
23370;SDS011;11858;51.056;3.712;2023-02-18T00:25:49;22.48;;;13.43;;
23370;SDS011;11858;51.056;3.712;2023-02-18T00:28:49;18.67;;;11.70;;
23370;SDS011;11858;51.056;3.712;2023-02-18T00:31:19;20.00;;;13.65;;
23370;SDS011;11858;51.056;3.712;2023-02-18T00:33:47;21.15;;;14.02;;
23370;SDS011;11858;51.056;3.712;2023-02-18T00:36:14;21.20;;;13.65;;
23370;SDS011;11858;51.056;3.712;2023-02-18T00:38:49;22.42;;;14.30;;
23370;SDS011;11858;51.056;3.712;2023-02-18T00:41:19;25.65;;;15.43;;
23370;SDS011;11858;51.056;3.712;2023-02-18T00:43:46;24.60;;;16.05;;
23370;SDS011;11858;51.056;3.712;2023-02-18T00:46:12;23.13;;;15.15;;
23370;SDS011;11858;51.056;3.712;2023-02-18T00:48:38;24.80;;;15.25;;
23370;SDS011;11858;51.056;3.712;2023-02-18T00:51:04;24.63;;;15.63;;
23370;SDS011;11858;51.056;3.712;2023-02-18T00:53:31;24.70;;;15.10;;
23370;SDS011;11858;51.056;3.712;2023-02-18T00:55:58;23.40;;;15.98;;
23370;SDS011;11858;51.056;3.712;2023-02-18T00:58:24;23.48;;;15.13;;
23370;SDS011;11858;51.056;3.712;2023-02-18T01:00:50;23.55;;;14.10;;
23370;SDS011;11858;51.056;3.712;2023-02-18T01:03:16;22.15;;;15.70;;
23370;SDS011;11858;51.056;3.712;2023-02-18T01:05:43;23.38;;;14.95;;
23370;SDS011;11858;51.056;3.712;2023-02-18T01:08:09;22.10;;;14.95;;
23370;SDS011;11858;51.056;3.712;2023-02-18T01:10:36;22.33;;;13.65;;
23370;SDS011;11858;51.056;3.712;2023-02-18T01:13:09;20.88;;;13.38;;
23370;SDS011;11858;51.056;3.712;2023-02-18T01:15:36;26.92;;;13.13;;
23370;SDS011;11858;51.056;3.712;2023-02-18T01:18:02;21.13;;;13.20;;
23370;SDS011;11858;51.056;3.712;2023-02-18T01:20:29;22.38;;;13.55;;
23370;SDS011;11858;51.056;3.712;2023-02-18T01:22:55;20.38;;;13.70;;
23370;SDS011;11858;51.056;3.712;2023-02-18T01:25:21;22.55;;;14.77;;
23370;SDS011;11858;51.056;3.712;2023-02-18T01:27:47;24.52;;;14.38;;
23370;SDS011;11858;51.056;3.712;2023-02-18T01:30:13;23.13;;;13.13;;
23370;SDS011;11858;51.056;3.712;2023-02-18T01:32:40;25.00;;;14.88;;
23370;SDS011;11858;51.056;3.712;2023-02-18T01:35:06;23.33;;;14.05;;
23370;SDS011;11858;51.056;3.712;2023-02-18T01:37:34;22.45;;;13.02;;
23370;SDS011;11858;51.056;3.712;2023-02-18T01:40:00;21.73;;;15.15;;
23370;SDS011;11858;51.056;3.712;2023-02-18T01:42:27;21.60;;;13.82;;
23370;SDS011;11858;51.056;3.712;2023-02-18T01:44:54;23.10;;;13.70;;
23370;SDS011;11858;51.056;3.712;2023-02-18T01:47:54;20.23;;;13.15;;
23370;SDS011;11858;51.056;3.712;2023-02-18T01:50:20;23.23;;;12.98;;
23370;SDS011;11858;51.056;3.712;2023-02-18T01:52:46;24.75;;;16.08;;
23370;SDS011;11858;51.056;3.712;2023-02-18T01:55:12;22.55;;;13.07;;
23370;SDS011;11858;51.056;3.712;2023-02-18T01:57:37;22.58;;;12.82;;
23370;SDS011;11858;51.056;3.712;2023-02-18T02:00:10;24.35;;;14.18;;
23370;SDS011;11858;51.056;3.712;2023-02-18T02:02:39;22.38;;;12.15;;
23370;SDS011;11858;51.056;3.712;2023-02-18T02:05:09;22.40;;;13.10;;
23370;SDS011;11858;51.056;3.712;2023-02-18T02:07:35;20.42;;;11.95;;
23370;SDS011;11858;51.056;3.712;2023-02-18T02:10:01;18.83;;;12.85;;
23370;SDS011;11858;51.056;3.712;2023-02-18T02:12:35;19.00;;;10.98;;
23370;SDS011;11858;51.056;3.712;2023-02-18T02:18:14;18.17;;;12.43;;
23370;SDS011;11858;51.056;3.712;2023-02-18T02:46:16;12.75;;;10.35;;
23370;SDS011;11858;51.056;3.712;2023-02-18T02:49:02;15.98;;;8.20;;
23370;SDS011;11858;51.056;3.712;2023-02-18T02:54:18;11.50;;;8.43;;
23370;SDS011;11858;51.056;3.712;2023-02-18T02:56:48;13.98;;;8.45;;
23370;SDS011;11858;51.056;3.712;2023-02-18T02:59:20;12.75;;;8.20;;
23370;SDS011;11858;51.056;3.712;2023-02-18T03:12:48;12.50;;;7.07;;
23370;SDS011;11858;51.056;3.712;2023-02-18T03:15:47;11.23;;;7.18;;
23370;SDS011;11858;51.056;3.712;2023-02-18T03:21:06;11.88;;;7.00;;
23370;SDS011;11858;51.056;3.712;2023-02-18T03:26:49;13.15;;;8.73;;
23370;SDS011;11858;51.056;3.712;2023-02-18T03:29:20;10.80;;;6.82;;
23370;SDS011;11858;51.056;3.712;2023-02-18T03:31:48;10.15;;;7.40;;
23370;SDS011;11858;51.056;3.712;2023-02-18T03:34:19;12.40;;;7.97;;
23370;SDS011;11858;51.056;3.712;2023-02-18T03:36:54;11.88;;;7.93;;
23370;SDS011;11858;51.056;3.712;2023-02-18T03:39:22;12.18;;;7.90;;
23370;SDS011;11858;51.056;3.712;2023-02-18T03:41:51;11.93;;;7.15;;
23370;SDS011;11858;51.056;3.712;2023-02-18T03:44:17;11.90;;;7.53;;
23370;SDS011;11858;51.056;3.712;2023-02-18T03:46:43;10.15;;;8.00;;
23370;SDS011;11858;51.056;3.712;2023-02-18T03:49:12;11.07;;;7.85;;
23370;SDS011;11858;51.056;3.712;2023-02-18T03:51:39;9.98;;;7.30;;
23370;SDS011;11858;51.056;3.712;2023-02-18T03:54:05;12.05;;;7.38;;
23370;SDS011;11858;51.056;3.712;2023-02-18T03:56:31;8.85;;;6.75;;
23370;SDS011;11858;51.056;3.712;2023-02-18T03:58:57;9.55;;;7.63;;
23370;SDS011;11858;51.056;3.712;2023-02-18T04:01:23;9.85;;;7.43;;
23370;SDS011;11858;51.056;3.712;2023-02-18T04:03:49;9.00;;;6.97;;
23370;SDS011;11858;51.056;3.712;2023-02-18T04:06:15;10.25;;;7.72;;
23370;SDS011;11858;51.056;3.712;2023-02-18T04:08:41;9.77;;;7.35;;
23370;SDS011;11858;51.056;3.712;2023-02-18T04:11:07;9.68;;;6.90;;
23370;SDS011;11858;51.056;3.712;2023-02-18T04:13:32;9.25;;;6.70;;
23370;SDS011;11858;51.056;3.712;2023-02-18T04:15:58;9.52;;;6.40;;
23370;SDS011;11858;51.056;3.712;2023-02-18T04:18:24;8.82;;;6.10;;
23370;SDS011;11858;51.056;3.712;2023-02-18T04:20:50;8.65;;;6.68;;
23370;SDS011;11858;51.056;3.712;2023-02-18T04:23:16;11.88;;;6.90;;
23370;SDS011;11858;51.056;3.712;2023-02-18T04:25:42;7.55;;;6.22;;
23370;SDS011;11858;51.056;3.712;2023-02-18T04:28:09;9.52;;;6.82;;
23370;SDS011;11858;51.056;3.712;2023-02-18T04:30:37;11.88;;;6.88;;
23370;SDS011;11858;51.056;3.712;2023-02-18T04:33:03;11.70;;;7.07;;
23370;SDS011;11858;51.056;3.712;2023-02-18T04:35:29;11.02;;;7.93;;
23370;SDS011;11858;51.056;3.712;2023-02-18T04:37:55;11.32;;;8.05;;
23370;SDS011;11858;51.056;3.712;2023-02-18T04:40:21;10.40;;;7.63;;
23370;SDS011;11858;51.056;3.712;2023-02-18T04:42:49;11.32;;;7.45;;
23370;SDS011;11858;51.056;3.712;2023-02-18T04:45:15;11.30;;;8.45;;
23370;SDS011;11858;51.056;3.712;2023-02-18T04:47:41;10.77;;;7.65;;
23370;SDS011;11858;51.056;3.712;2023-02-18T04:50:06;12.35;;;8.55;;
23370;SDS011;11858;51.056;3.712;2023-02-18T04:52:33;10.50;;;7.78;;
23370;SDS011;11858;51.056;3.712;2023-02-18T04:54:58;11.63;;;7.45;;
23370;SDS011;11858;51.056;3.712;2023-02-18T04:57:24;14.40;;;8.60;;
23370;SDS011;11858;51.056;3.712;2023-02-18T04:59:50;12.75;;;8.77;;
23370;SDS011;11858;51.056;3.712;2023-02-18T05:02:15;17.30;;;9.45;;
23370;SDS011;11858;51.056;3.712;2023-02-18T05:04:41;16.40;;;9.75;;
23370;SDS011;11858;51.056;3.712;2023-02-18T05:07:07;16.23;;;9.48;;
23370;SDS011;11858;51.056;3.712;2023-02-18T05:09:33;17.85;;;10.20;;
23370;SDS011;11858;51.056;3.712;2023-02-18T05:11:58;15.88;;;10.77;;
23370;SDS011;11858;51.056;3.712;2023-02-18T05:14:24;16.02;;;9.93;;
23370;SDS011;11858;51.056;3.712;2023-02-18T05:16:50;14.23;;;8.77;;
23370;SDS011;11858;51.056;3.712;2023-02-18T05:19:16;13.68;;;8.20;;
23370;SDS011;11858;51.056;3.712;2023-02-18T05:21:42;14.77;;;7.07;;
23370;SDS011;11858;51.056;3.712;2023-02-18T05:24:08;15.68;;;6.05;;
23370;SDS011;11858;51.056;3.712;2023-02-18T05:26:34;14.30;;;5.85;;
23370;SDS011;11858;51.056;3.712;2023-02-18T05:29:00;15.75;;;4.97;;
23370;SDS011;11858;51.056;3.712;2023-02-18T05:31:26;19.15;;;4.00;;
23370;SDS011;11858;51.056;3.712;2023-02-18T05:33:52;15.57;;;3.55;;
23370;SDS011;11858;51.056;3.712;2023-02-18T05:36:18;14.82;;;3.55;;
23370;SDS011;11858;51.056;3.712;2023-02-18T05:38:44;14.05;;;3.80;;
23370;SDS011;11858;51.056;3.712;2023-02-18T05:41:09;14.38;;;3.35;;
23370;SDS011;11858;51.056;3.712;2023-02-18T05:43:35;13.75;;;3.40;;
23370;SDS011;11858;51.056;3.712;2023-02-18T05:46:21;21.38;;;3.70;;
23370;SDS011;11858;51.056;3.712;2023-02-18T05:48:47;19.45;;;3.38;;
23370;SDS011;11858;51.056;3.712;2023-02-18T05:51:13;16.20;;;3.63;;
23370;SDS011;11858;51.056;3.712;2023-02-18T05:53:39;16.25;;;3.08;;
23370;SDS011;11858;51.056;3.712;2023-02-18T05:56:05;16.77;;;3.22;;
23370;SDS011;11858;51.056;3.712;2023-02-18T05:58:31;16.23;;;3.50;;
23370;SDS011;11858;51.056;3.712;2023-02-18T06:00:57;21.13;;;4.20;;
23370;SDS011;11858;51.056;3.712;2023-02-18T06:03:22;12.32;;;3.67;;
23370;SDS011;11858;51.056;3.712;2023-02-18T06:05:49;13.98;;;3.00;;
23370;SDS011;11858;51.056;3.712;2023-02-18T06:08:15;21.35;;;3.40;;
23370;SDS011;11858;51.056;3.712;2023-02-18T06:10:41;18.10;;;3.78;;
23370;SDS011;11858;51.056;3.712;2023-02-18T06:13:06;18.15;;;3.97;;
23370;SDS011;11858;51.056;3.712;2023-02-18T06:15:32;16.40;;;3.85;;
23370;SDS011;11858;51.056;3.712;2023-02-18T06:17:58;15.95;;;3.58;;
23370;SDS011;11858;51.056;3.712;2023-02-18T06:20:24;23.73;;;4.03;;
23370;SDS011;11858;51.056;3.712;2023-02-18T06:22:49;15.05;;;4.40;;
23370;SDS011;11858;51.056;3.712;2023-02-18T06:25:15;18.67;;;4.38;;
23370;SDS011;11858;51.056;3.712;2023-02-18T06:27:41;12.13;;;3.88;;
23370;SDS011;11858;51.056;3.712;2023-02-18T06:30:07;15.32;;;4.47;;
23370;SDS011;11858;51.056;3.712;2023-02-18T06:32:33;14.40;;;3.95;;
23370;SDS011;11858;51.056;3.712;2023-02-18T06:34:59;13.65;;;4.13;;
23370;SDS011;11858;51.056;3.712;2023-02-18T06:37:25;16.30;;;4.35;;
23370;SDS011;11858;51.056;3.712;2023-02-18T06:39:51;14.32;;;4.68;;
23370;SDS011;11858;51.056;3.712;2023-02-18T06:42:17;14.90;;;4.32;;
23370;SDS011;11858;51.056;3.712;2023-02-18T06:44:43;19.65;;;4.03;;
23370;SDS011;11858;51.056;3.712;2023-02-18T06:47:08;23.02;;;5.00;;
23370;SDS011;11858;51.056;3.712;2023-02-18T06:49:34;12.20;;;3.60;;
23370;SDS011;11858;51.056;3.712;2023-02-18T06:52:00;18.33;;;4.35;;
23370;SDS011;11858;51.056;3.712;2023-02-18T06:54:26;14.88;;;3.97;;
23370;SDS011;11858;51.056;3.712;2023-02-18T06:56:52;15.23;;;3.60;;
23370;SDS011;11858;51.056;3.712;2023-02-18T06:59:18;12.73;;;4.00;;
23370;SDS011;11858;51.056;3.712;2023-02-18T07:01:44;13.55;;;3.92;;
23370;SDS011;11858;51.056;3.712;2023-02-18T07:04:09;18.25;;;3.75;;
23370;SDS011;11858;51.056;3.712;2023-02-18T07:06:35;19.38;;;4.25;;
23370;SDS011;11858;51.056;3.712;2023-02-18T07:09:01;18.80;;;3.88;;
23370;SDS011;11858;51.056;3.712;2023-02-18T07:11:27;17.13;;;3.80;;
23370;SDS011;11858;51.056;3.712;2023-02-18T07:13:52;16.40;;;3.92;;
23370;SDS011;11858;51.056;3.712;2023-02-18T07:16:18;14.32;;;3.60;;
23370;SDS011;11858;51.056;3.712;2023-02-18T07:18:44;14.30;;;3.33;;
23370;SDS011;11858;51.056;3.712;2023-02-18T07:21:10;14.50;;;4.25;;
23370;SDS011;11858;51.056;3.712;2023-02-18T07:23:36;13.95;;;3.90;;
23370;SDS011;11858;51.056;3.712;2023-02-18T07:26:05;13.48;;;3.80;;
23370;SDS011;11858;51.056;3.712;2023-02-18T07:30:58;14.18;;;4.30;;
23370;SDS011;11858;51.056;3.712;2023-02-18T07:33:24;14.80;;;4.32;;
23370;SDS011;11858;51.056;3.712;2023-02-18T07:35:56;14.93;;;4.03;;
23370;SDS011;11858;51.056;3.712;2023-02-18T07:38:23;11.35;;;3.97;;
23370;SDS011;11858;51.056;3.712;2023-02-18T07:40:50;11.75;;;3.70;;
23370;SDS011;11858;51.056;3.712;2023-02-18T07:43:16;14.65;;;3.85;;
23370;SDS011;11858;51.056;3.712;2023-02-18T07:45:42;15.30;;;3.85;;
23370;SDS011;11858;51.056;3.712;2023-02-18T07:48:07;11.25;;;4.22;;
23370;SDS011;11858;51.056;3.712;2023-02-18T07:50:33;17.85;;;4.85;;
23370;SDS011;11858;51.056;3.712;2023-02-18T07:53:01;13.13;;;4.43;;
23370;SDS011;11858;51.056;3.712;2023-02-18T07:55:29;16.42;;;4.25;;
23370;SDS011;11858;51.056;3.712;2023-02-18T07:58:17;12.20;;;4.07;;
23370;SDS011;11858;51.056;3.712;2023-02-18T08:00:51;10.88;;;3.80;;
23370;SDS011;11858;51.056;3.712;2023-02-18T08:03:18;15.27;;;4.50;;
23370;SDS011;11858;51.056;3.712;2023-02-18T08:05:49;14.63;;;4.25;;
23370;SDS011;11858;51.056;3.712;2023-02-18T08:08:15;16.75;;;4.07;;
23370;SDS011;11858;51.056;3.712;2023-02-18T08:10:45;20.13;;;3.97;;
23370;SDS011;11858;51.056;3.712;2023-02-18T08:13:11;16.00;;;4.32;;
23370;SDS011;11858;51.056;3.712;2023-02-18T08:15:37;10.82;;;3.75;;
23370;SDS011;11858;51.056;3.712;2023-02-18T08:18:03;18.20;;;4.78;;
23370;SDS011;11858;51.056;3.712;2023-02-18T08:20:30;18.90;;;4.10;;
23370;SDS011;11858;51.056;3.712;2023-02-18T08:22:56;12.90;;;3.90;;
23370;SDS011;11858;51.056;3.712;2023-02-18T08:25:21;13.45;;;3.92;;
23370;SDS011;11858;51.056;3.712;2023-02-18T08:27:47;15.63;;;3.97;;
23370;SDS011;11858;51.056;3.712;2023-02-18T08:30:13;12.73;;;3.15;;
23370;SDS011;11858;51.056;3.712;2023-02-18T08:32:39;14.82;;;3.30;;
23370;SDS011;11858;51.056;3.712;2023-02-18T08:35:05;11.95;;;3.15;;
23370;SDS011;11858;51.056;3.712;2023-02-18T08:37:31;14.07;;;3.75;;
23370;SDS011;11858;51.056;3.712;2023-02-18T08:39:57;13.65;;;3.80;;
23370;SDS011;11858;51.056;3.712;2023-02-18T08:42:23;10.18;;;3.42;;
23370;SDS011;11858;51.056;3.712;2023-02-18T08:44:49;8.82;;;3.30;;
23370;SDS011;11858;51.056;3.712;2023-02-18T08:47:14;17.30;;;3.53;;
23370;SDS011;11858;51.056;3.712;2023-02-18T08:49:40;17.58;;;4.03;;
23370;SDS011;11858;51.056;3.712;2023-02-18T08:52:06;13.80;;;3.83;;
23370;SDS011;11858;51.056;3.712;2023-02-18T08:54:32;13.82;;;3.50;;
23370;SDS011;11858;51.056;3.712;2023-02-18T08:56:57;12.35;;;3.42;;
23370;SDS011;11858;51.056;3.712;2023-02-18T08:59:24;13.05;;;3.22;;
23370;SDS011;11858;51.056;3.712;2023-02-18T09:01:50;17.73;;;3.40;;
23370;SDS011;11858;51.056;3.712;2023-02-18T09:04:16;12.45;;;3.53;;
23370;SDS011;11858;51.056;3.712;2023-02-18T09:06:42;15.52;;;3.40;;
23370;SDS011;11858;51.056;3.712;2023-02-18T09:09:08;10.90;;;3.13;;
23370;SDS011;11858;51.056;3.712;2023-02-18T09:11:34;14.05;;;3.42;;
23370;SDS011;11858;51.056;3.712;2023-02-18T09:14:01;16.42;;;3.55;;
23370;SDS011;11858;51.056;3.712;2023-02-18T09:16:27;15.93;;;3.20;;
23370;SDS011;11858;51.056;3.712;2023-02-18T09:18:54;12.55;;;3.03;;
23370;SDS011;11858;51.056;3.712;2023-02-18T09:21:20;14.57;;;3.63;;
23370;SDS011;11858;51.056;3.712;2023-02-18T09:23:47;15.45;;;3.72;;
23370;SDS011;11858;51.056;3.712;2023-02-18T09:26:15;13.68;;;3.47;;
23370;SDS011;11858;51.056;3.712;2023-02-18T09:28:42;13.82;;;4.03;;
23370;SDS011;11858;51.056;3.712;2023-02-18T09:31:12;14.57;;;3.20;;
23370;SDS011;11858;51.056;3.712;2023-02-18T09:33:41;12.30;;;3.40;;
23370;SDS011;11858;51.056;3.712;2023-02-18T09:36:09;16.02;;;3.97;;
23370;SDS011;11858;51.056;3.712;2023-02-18T09:38:35;18.77;;;3.80;;
23370;SDS011;11858;51.056;3.712;2023-02-18T09:41:02;14.20;;;3.17;;
23370;SDS011;11858;51.056;3.712;2023-02-18T09:43:40;14.98;;;3.55;;
23370;SDS011;11858;51.056;3.712;2023-02-18T09:46:17;14.65;;;3.55;;
23370;SDS011;11858;51.056;3.712;2023-02-18T09:48:54;12.57;;;3.15;;
23370;SDS011;11858;51.056;3.712;2023-02-18T09:51:21;15.07;;;3.67;;
23370;SDS011;11858;51.056;3.712;2023-02-18T09:53:47;20.80;;;4.18;;
23370;SDS011;11858;51.056;3.712;2023-02-18T09:56:14;15.13;;;3.65;;
23370;SDS011;11858;51.056;3.712;2023-02-18T09:58:43;14.70;;;3.70;;
23370;SDS011;11858;51.056;3.712;2023-02-18T10:01:17;13.10;;;3.33;;
23370;SDS011;11858;51.056;3.712;2023-02-18T10:04:01;12.18;;;3.22;;
23370;SDS011;11858;51.056;3.712;2023-02-18T10:06:37;11.65;;;3.60;;
23370;SDS011;11858;51.056;3.712;2023-02-18T10:09:04;17.08;;;4.07;;
23370;SDS011;11858;51.056;3.712;2023-02-18T10:11:41;17.88;;;3.67;;
23370;SDS011;11858;51.056;3.712;2023-02-18T10:14:08;13.77;;;3.75;;
23370;SDS011;11858;51.056;3.712;2023-02-18T10:16:37;16.30;;;3.67;;
23370;SDS011;11858;51.056;3.712;2023-02-18T10:19:06;13.27;;;3.33;;
23370;SDS011;11858;51.056;3.712;2023-02-18T10:21:45;14.35;;;3.75;;
23370;SDS011;11858;51.056;3.712;2023-02-18T10:26:42;18.05;;;3.40;;
23370;SDS011;11858;51.056;3.712;2023-02-18T10:29:15;17.40;;;4.22;;
23370;SDS011;11858;51.056;3.712;2023-02-18T10:31:43;16.27;;;3.28;;
23370;SDS011;11858;51.056;3.712;2023-02-18T10:34:16;17.38;;;3.75;;
23370;SDS011;11858;51.056;3.712;2023-02-18T10:42:30;21.45;;;4.43;;
23370;SDS011;11858;51.056;3.712;2023-02-18T10:51:20;13.90;;;4.07;;
23370;SDS011;11858;51.056;3.712;2023-02-18T10:53:50;16.38;;;4.30;;
23370;SDS011;11858;51.056;3.712;2023-02-18T10:56:35;19.85;;;4.10;;
23370;SDS011;11858;51.056;3.712;2023-02-18T11:01:56;15.07;;;3.55;;
23370;SDS011;11858;51.056;3.712;2023-02-18T11:04:33;19.60;;;3.92;;
23370;SDS011;11858;51.056;3.712;2023-02-18T11:07:28;20.55;;;4.80;;
23370;SDS011;11858;51.056;3.712;2023-02-18T11:12:20;16.55;;;3.88;;
23370;SDS011;11858;51.056;3.712;2023-02-18T11:14:48;19.27;;;4.10;;
23370;SDS011;11858;51.056;3.712;2023-02-18T11:17:30;15.48;;;3.35;;
23370;SDS011;11858;51.056;3.712;2023-02-18T11:19:59;13.15;;;3.25;;
23370;SDS011;11858;51.056;3.712;2023-02-18T11:22:30;15.95;;;3.97;;
23370;SDS011;11858;51.056;3.712;2023-02-18T11:25:01;19.80;;;4.18;;
23370;SDS011;11858;51.056;3.712;2023-02-18T11:30:52;15.02;;;4.38;;
23370;SDS011;11858;51.056;3.712;2023-02-18T11:35:28;17.65;;;3.90;;
23370;SDS011;11858;51.056;3.712;2023-02-18T11:37:56;13.45;;;4.15;;
23370;SDS011;11858;51.056;3.712;2023-02-18T11:40:24;15.45;;;3.78;;
23370;SDS011;11858;51.056;3.712;2023-02-18T11:43:17;17.52;;;4.13;;
23370;SDS011;11858;51.056;3.712;2023-02-18T11:45:44;12.30;;;3.38;;
23370;SDS011;11858;51.056;3.712;2023-02-18T11:48:18;13.95;;;3.47;;
23370;SDS011;11858;51.056;3.712;2023-02-18T11:50:51;13.60;;;3.65;;
23370;SDS011;11858;51.056;3.712;2023-02-18T11:55:53;18.98;;;4.38;;
23370;SDS011;11858;51.056;3.712;2023-02-18T11:58:21;10.15;;;3.97;;
23370;SDS011;11858;51.056;3.712;2023-02-18T12:00:47;16.30;;;3.67;;
23370;SDS011;11858;51.056;3.712;2023-02-18T12:06:03;13.88;;;4.35;;
23370;SDS011;11858;51.056;3.712;2023-02-18T12:08:38;18.60;;;3.78;;
23370;SDS011;11858;51.056;3.712;2023-02-18T12:11:14;19.83;;;4.30;;
23370;SDS011;11858;51.056;3.712;2023-02-18T12:14:02;12.13;;;4.10;;
23370;SDS011;11858;51.056;3.712;2023-02-18T12:16:36;14.63;;;4.40;;
23370;SDS011;11858;51.056;3.712;2023-02-18T12:37:55;17.80;;;4.03;;
23370;SDS011;11858;51.056;3.712;2023-02-18T12:40:44;9.23;;;3.58;;
23370;SDS011;11858;51.056;3.712;2023-02-18T12:43:29;15.45;;;4.18;;
23370;SDS011;11858;51.056;3.712;2023-02-18T12:57:45;16.55;;;4.18;;
23370;SDS011;11858;51.056;3.712;2023-02-18T13:16:39;16.40;;;3.85;;
23370;SDS011;11858;51.056;3.712;2023-02-18T13:19:24;12.65;;;3.63;;
23370;SDS011;11858;51.056;3.712;2023-02-18T13:21:57;12.27;;;3.67;;
23370;SDS011;11858;51.056;3.712;2023-02-18T13:26:52;16.15;;;3.70;;
23370;SDS011;11858;51.056;3.712;2023-02-18T13:29:28;12.95;;;3.88;;
23370;SDS011;11858;51.056;3.712;2023-02-18T13:34:45;15.07;;;4.35;;
23370;SDS011;11858;51.056;3.712;2023-02-18T13:39:52;18.20;;;3.60;;
23370;SDS011;11858;51.056;3.712;2023-02-18T13:47:39;16.23;;;3.97;;
23370;SDS011;11858;51.056;3.712;2023-02-18T13:50:22;16.25;;;4.20;;
23370;SDS011;11858;51.056;3.712;2023-02-18T13:58:04;12.20;;;4.03;;
23370;SDS011;11858;51.056;3.712;2023-02-18T14:00:48;12.90;;;3.80;;
23370;SDS011;11858;51.056;3.712;2023-02-18T14:05:55;16.15;;;3.60;;
23370;SDS011;11858;51.056;3.712;2023-02-18T14:08:31;14.52;;;3.85;;
23370;SDS011;11858;51.056;3.712;2023-02-18T14:13:55;12.40;;;4.20;;
23370;SDS011;11858;51.056;3.712;2023-02-18T14:19:42;11.65;;;3.65;;
23370;SDS011;11858;51.056;3.712;2023-02-18T14:22:47;15.13;;;3.97;;
23370;SDS011;11858;51.056;3.712;2023-02-18T14:27:45;19.08;;;4.15;;
23370;SDS011;11858;51.056;3.712;2023-02-18T14:30:16;15.85;;;4.38;;
23370;SDS011;11858;51.056;3.712;2023-02-18T14:33:03;12.73;;;3.97;;
23370;SDS011;11858;51.056;3.712;2023-02-18T14:40:59;18.05;;;4.45;;
23370;SDS011;11858;51.056;3.712;2023-02-18T14:49:49;16.30;;;4.35;;
23370;SDS011;11858;51.056;3.712;2023-02-18T14:52:21;17.40;;;4.70;;
23370;SDS011;11858;51.056;3.712;2023-02-18T14:54:48;16.45;;;4.18;;
23370;SDS011;11858;51.056;3.712;2023-02-18T14:57:17;12.55;;;4.85;;
23370;SDS011;11858;51.056;3.712;2023-02-18T14:59:49;14.18;;;4.40;;
23370;SDS011;11858;51.056;3.712;2023-02-18T15:02:24;13.55;;;4.40;;
23370;SDS011;11858;51.056;3.712;2023-02-18T15:04:52;14.75;;;4.47;;
23370;SDS011;11858;51.056;3.712;2023-02-18T15:07:21;17.92;;;4.43;;
23370;SDS011;11858;51.056;3.712;2023-02-18T15:09:48;12.05;;;3.78;;
23370;SDS011;11858;51.056;3.712;2023-02-18T15:12:19;14.50;;;4.13;;
23370;SDS011;11858;51.056;3.712;2023-02-18T15:14:48;15.90;;;4.95;;
23370;SDS011;11858;51.056;3.712;2023-02-18T15:17:17;14.73;;;3.88;;
23370;SDS011;11858;51.056;3.712;2023-02-18T15:19:47;13.75;;;3.72;;
23370;SDS011;11858;51.056;3.712;2023-02-18T15:22:18;20.50;;;3.65;;
23370;SDS011;11858;51.056;3.712;2023-02-18T15:24:46;11.05;;;3.58;;
23370;SDS011;11858;51.056;3.712;2023-02-18T15:27:23;15.55;;;3.50;;
23370;SDS011;11858;51.056;3.712;2023-02-18T15:29:58;14.63;;;4.05;;
23370;SDS011;11858;51.056;3.712;2023-02-18T15:32:52;16.45;;;4.10;;
23370;SDS011;11858;51.056;3.712;2023-02-18T15:35:20;11.57;;;3.58;;
23370;SDS011;11858;51.056;3.712;2023-02-18T15:37:54;14.52;;;3.70;;
23370;SDS011;11858;51.056;3.712;2023-02-18T15:40:23;18.40;;;4.22;;
23370;SDS011;11858;51.056;3.712;2023-02-18T15:42:58;11.25;;;3.80;;
23370;SDS011;11858;51.056;3.712;2023-02-18T15:50:28;11.90;;;3.90;;
23370;SDS011;11858;51.056;3.712;2023-02-18T15:52:57;15.82;;;3.92;;
23370;SDS011;11858;51.056;3.712;2023-02-18T15:55:32;8.27;;;3.03;;
23370;SDS011;11858;51.056;3.712;2023-02-18T15:58:01;14.93;;;4.20;;
23370;SDS011;11858;51.056;3.712;2023-02-18T16:00:31;10.98;;;4.00;;
23370;SDS011;11858;51.056;3.712;2023-02-18T16:03:01;12.63;;;3.50;;
23370;SDS011;11858;51.056;3.712;2023-02-18T16:05:35;10.65;;;3.60;;
23370;SDS011;11858;51.056;3.712;2023-02-18T16:08:06;13.23;;;4.15;;
23370;SDS011;11858;51.056;3.712;2023-02-18T16:10:55;13.05;;;4.32;;
23370;SDS011;11858;51.056;3.712;2023-02-18T16:13:29;13.13;;;4.63;;
23370;SDS011;11858;51.056;3.712;2023-02-18T16:15:56;16.35;;;4.45;;
23370;SDS011;11858;51.056;3.712;2023-02-18T16:21:01;14.80;;;4.45;;
23370;SDS011;11858;51.056;3.712;2023-02-18T16:23:40;12.68;;;3.97;;
23370;SDS011;11858;51.056;3.712;2023-02-18T16:26:08;13.90;;;4.47;;
23370;SDS011;11858;51.056;3.712;2023-02-18T16:28:40;14.43;;;4.80;;
23370;SDS011;11858;51.056;3.712;2023-02-18T16:31:07;11.77;;;5.20;;
23370;SDS011;11858;51.056;3.712;2023-02-18T16:33:33;16.98;;;5.72;;
23370;SDS011;11858;51.056;3.712;2023-02-18T16:35:59;10.55;;;5.07;;
23370;SDS011;11858;51.056;3.712;2023-02-18T16:38:25;19.73;;;6.07;;
23370;SDS011;11858;51.056;3.712;2023-02-18T16:40:57;15.40;;;6.20;;
23370;SDS011;11858;51.056;3.712;2023-02-18T16:43:24;12.77;;;5.57;;
23370;SDS011;11858;51.056;3.712;2023-02-18T16:45:54;19.65;;;5.78;;
23370;SDS011;11858;51.056;3.712;2023-02-18T16:53:51;17.13;;;5.38;;
23370;SDS011;11858;51.056;3.712;2023-02-18T16:56:18;17.02;;;5.88;;
23370;SDS011;11858;51.056;3.712;2023-02-18T16:58:51;19.95;;;6.25;;
23370;SDS011;11858;51.056;3.712;2023-02-18T17:03:51;16.17;;;6.28;;
23370;SDS011;11858;51.056;3.712;2023-02-18T17:06:17;15.80;;;6.25;;
23370;SDS011;11858;51.056;3.712;2023-02-18T17:08:43;17.48;;;6.68;;
23370;SDS011;11858;51.056;3.712;2023-02-18T17:11:17;17.58;;;6.63;;
23370;SDS011;11858;51.056;3.712;2023-02-18T17:13:50;19.50;;;7.18;;
23370;SDS011;11858;51.056;3.712;2023-02-18T17:16:17;18.70;;;7.95;;
23370;SDS011;11858;51.056;3.712;2023-02-18T17:18:44;22.40;;;7.75;;
23370;SDS011;11858;51.056;3.712;2023-02-18T17:21:11;19.27;;;7.45;;
23370;SDS011;11858;51.056;3.712;2023-02-18T17:26:13;17.05;;;7.68;;
23370;SDS011;11858;51.056;3.712;2023-02-18T17:28:45;21.23;;;7.57;;
23370;SDS011;11858;51.056;3.712;2023-02-18T17:31:16;22.35;;;8.52;;
23370;SDS011;11858;51.056;3.712;2023-02-18T17:33:45;21.25;;;8.73;;
23370;SDS011;11858;51.056;3.712;2023-02-18T17:36:11;24.20;;;10.02;;
23370;SDS011;11858;51.056;3.712;2023-02-18T17:38:38;23.23;;;9.93;;
23370;SDS011;11858;51.056;3.712;2023-02-18T17:41:04;24.17;;;10.55;;
23370;SDS011;11858;51.056;3.712;2023-02-18T17:43:31;21.60;;;9.38;;
23370;SDS011;11858;51.056;3.712;2023-02-18T17:45:57;23.42;;;10.25;;
23370;SDS011;11858;51.056;3.712;2023-02-18T17:48:23;25.73;;;11.48;;
23370;SDS011;11858;51.056;3.712;2023-02-18T17:50:49;23.77;;;11.07;;
23370;SDS011;11858;51.056;3.712;2023-02-18T17:53:16;21.02;;;10.35;;